sensor_id;sensor_type;location;lat;lon;timestamp;P1;durP1;ratioP1;P2;durP2;ratioP2
84608;SDS011;74839;51.214;22.574;2023-12-20T00:01:31;29.37;;;14.07;;
84608;SDS011;74839;51.214;22.574;2023-12-20T00:03:57;23.67;;;13.40;;
84608;SDS011;74839;51.214;22.574;2023-12-20T00:06:23;22.73;;;13.03;;
84608;SDS011;74839;51.214;22.574;2023-12-20T00:08:49;23.97;;;13.03;;
84608;SDS011;74839;51.214;22.574;2023-12-20T00:11:15;23.93;;;13.37;;
84608;SDS011;74839;51.214;22.574;2023-12-20T00:13:41;22.50;;;12.60;;
84608;SDS011;74839;51.214;22.574;2023-12-20T00:16:07;25.03;;;13.70;;
84608;SDS011;74839;51.214;22.574;2023-12-20T00:18:33;22.13;;;12.63;;
84608;SDS011;74839;51.214;22.574;2023-12-20T00:20:59;23.63;;;13.00;;
84608;SDS011;74839;51.214;22.574;2023-12-20T00:23:25;22.63;;;12.87;;
84608;SDS011;74839;51.214;22.574;2023-12-20T00:25:51;21.63;;;12.97;;
84608;SDS011;74839;51.214;22.574;2023-12-20T00:28:17;20.60;;;12.70;;
84608;SDS011;74839;51.214;22.574;2023-12-20T00:30:43;21.70;;;13.03;;
84608;SDS011;74839;51.214;22.574;2023-12-20T00:33:09;24.83;;;13.57;;
84608;SDS011;74839;51.214;22.574;2023-12-20T00:35:35;21.57;;;12.60;;
84608;SDS011;74839;51.214;22.574;2023-12-20T00:38:01;21.20;;;12.20;;
84608;SDS011;74839;51.214;22.574;2023-12-20T00:40:27;24.67;;;12.93;;
84608;SDS011;74839;51.214;22.574;2023-12-20T00:42:53;22.93;;;12.57;;
84608;SDS011;74839;51.214;22.574;2023-12-20T00:45:19;22.60;;;12.93;;
84608;SDS011;74839;51.214;22.574;2023-12-20T00:47:45;25.13;;;13.53;;
84608;SDS011;74839;51.214;22.574;2023-12-20T00:50:12;22.00;;;13.37;;
84608;SDS011;74839;51.214;22.574;2023-12-20T00:52:38;21.67;;;12.53;;
84608;SDS011;74839;51.214;22.574;2023-12-20T00:55:04;26.53;;;13.27;;
84608;SDS011;74839;51.214;22.574;2023-12-20T00:57:30;24.20;;;12.93;;
84608;SDS011;74839;51.214;22.574;2023-12-20T00:59:56;22.83;;;13.03;;
84608;SDS011;74839;51.214;22.574;2023-12-20T01:02:22;22.60;;;13.57;;
84608;SDS011;74839;51.214;22.574;2023-12-20T01:04:48;24.20;;;13.17;;
84608;SDS011;74839;51.214;22.574;2023-12-20T01:07:14;22.50;;;12.23;;
84608;SDS011;74839;51.214;22.574;2023-12-20T01:09:41;26.97;;;12.93;;
84608;SDS011;74839;51.214;22.574;2023-12-20T01:12:07;22.57;;;13.50;;
84608;SDS011;74839;51.214;22.574;2023-12-20T01:14:33;21.07;;;13.43;;
84608;SDS011;74839;51.214;22.574;2023-12-20T01:16:59;23.93;;;14.27;;
84608;SDS011;74839;51.214;22.574;2023-12-20T01:19:25;26.47;;;14.20;;
84608;SDS011;74839;51.214;22.574;2023-12-20T01:21:52;22.87;;;12.90;;
84608;SDS011;74839;51.214;22.574;2023-12-20T01:24:18;26.10;;;13.83;;
84608;SDS011;74839;51.214;22.574;2023-12-20T01:26:44;23.90;;;13.87;;
84608;SDS011;74839;51.214;22.574;2023-12-20T01:29:10;29.10;;;13.80;;
84608;SDS011;74839;51.214;22.574;2023-12-20T01:31:38;24.47;;;13.87;;
84608;SDS011;74839;51.214;22.574;2023-12-20T01:34:04;25.40;;;13.63;;
84608;SDS011;74839;51.214;22.574;2023-12-20T01:36:30;23.87;;;14.17;;
84608;SDS011;74839;51.214;22.574;2023-12-20T01:38:56;22.07;;;13.80;;
84608;SDS011;74839;51.214;22.574;2023-12-20T01:41:22;26.10;;;13.50;;
84608;SDS011;74839;51.214;22.574;2023-12-20T01:43:48;27.10;;;15.50;;
84608;SDS011;74839;51.214;22.574;2023-12-20T01:46:14;21.93;;;13.67;;
84608;SDS011;74839;51.214;22.574;2023-12-20T01:48:40;23.23;;;13.80;;
84608;SDS011;74839;51.214;22.574;2023-12-20T01:51:06;23.60;;;13.37;;
84608;SDS011;74839;51.214;22.574;2023-12-20T01:53:33;23.30;;;13.83;;
84608;SDS011;74839;51.214;22.574;2023-12-20T01:55:59;21.53;;;13.20;;
84608;SDS011;74839;51.214;22.574;2023-12-20T01:58:25;22.17;;;13.23;;
84608;SDS011;74839;51.214;22.574;2023-12-20T02:00:51;23.83;;;14.80;;
84608;SDS011;74839;51.214;22.574;2023-12-20T02:03:17;25.17;;;14.17;;
84608;SDS011;74839;51.214;22.574;2023-12-20T02:05:43;27.20;;;14.50;;
84608;SDS011;74839;51.214;22.574;2023-12-20T02:08:10;23.67;;;13.40;;
84608;SDS011;74839;51.214;22.574;2023-12-20T02:10:36;21.43;;;13.70;;
84608;SDS011;74839;51.214;22.574;2023-12-20T02:13:03;23.37;;;13.60;;
84608;SDS011;74839;51.214;22.574;2023-12-20T02:15:29;22.73;;;14.20;;
84608;SDS011;74839;51.214;22.574;2023-12-20T02:17:55;24.70;;;13.90;;
84608;SDS011;74839;51.214;22.574;2023-12-20T02:20:21;22.13;;;12.53;;
84608;SDS011;74839;51.214;22.574;2023-12-20T02:22:47;24.33;;;14.67;;
84608;SDS011;74839;51.214;22.574;2023-12-20T02:25:13;26.07;;;13.13;;
84608;SDS011;74839;51.214;22.574;2023-12-20T02:27:40;26.30;;;13.83;;
84608;SDS011;74839;51.214;22.574;2023-12-20T02:30:06;23.43;;;12.83;;
84608;SDS011;74839;51.214;22.574;2023-12-20T02:32:32;22.73;;;13.93;;
84608;SDS011;74839;51.214;22.574;2023-12-20T02:34:58;25.87;;;14.00;;
84608;SDS011;74839;51.214;22.574;2023-12-20T02:37:24;25.63;;;15.00;;
84608;SDS011;74839;51.214;22.574;2023-12-20T02:39:50;27.17;;;14.07;;
84608;SDS011;74839;51.214;22.574;2023-12-20T02:42:16;27.07;;;14.20;;
84608;SDS011;74839;51.214;22.574;2023-12-20T02:44:42;25.07;;;14.43;;
84608;SDS011;74839;51.214;22.574;2023-12-20T02:47:08;21.97;;;13.20;;
84608;SDS011;74839;51.214;22.574;2023-12-20T02:49:34;26.33;;;14.70;;
84608;SDS011;74839;51.214;22.574;2023-12-20T02:52:00;26.27;;;14.63;;
84608;SDS011;74839;51.214;22.574;2023-12-20T02:54:26;24.10;;;13.70;;
84608;SDS011;74839;51.214;22.574;2023-12-20T02:56:52;25.10;;;14.67;;
84608;SDS011;74839;51.214;22.574;2023-12-20T02:59:18;26.33;;;14.73;;
84608;SDS011;74839;51.214;22.574;2023-12-20T03:01:45;23.40;;;13.90;;
84608;SDS011;74839;51.214;22.574;2023-12-20T03:04:11;22.60;;;13.63;;
84608;SDS011;74839;51.214;22.574;2023-12-20T03:06:37;25.37;;;14.77;;
84608;SDS011;74839;51.214;22.574;2023-12-20T03:09:03;24.80;;;14.47;;
84608;SDS011;74839;51.214;22.574;2023-12-20T03:11:30;25.07;;;14.53;;
84608;SDS011;74839;51.214;22.574;2023-12-20T03:13:56;25.73;;;13.73;;
84608;SDS011;74839;51.214;22.574;2023-12-20T03:16:22;26.40;;;13.70;;
84608;SDS011;74839;51.214;22.574;2023-12-20T03:18:48;25.73;;;13.07;;
84608;SDS011;74839;51.214;22.574;2023-12-20T03:21:14;26.70;;;13.40;;
84608;SDS011;74839;51.214;22.574;2023-12-20T03:23:41;20.97;;;12.83;;
84608;SDS011;74839;51.214;22.574;2023-12-20T03:26:07;25.80;;;13.40;;
84608;SDS011;74839;51.214;22.574;2023-12-20T03:28:33;23.93;;;13.20;;
84608;SDS011;74839;51.214;22.574;2023-12-20T03:30:59;22.60;;;14.13;;
84608;SDS011;74839;51.214;22.574;2023-12-20T03:33:27;24.90;;;13.80;;
84608;SDS011;74839;51.214;22.574;2023-12-20T03:35:53;23.10;;;13.37;;
84608;SDS011;74839;51.214;22.574;2023-12-20T03:38:20;25.77;;;13.60;;
84608;SDS011;74839;51.214;22.574;2023-12-20T03:40:46;20.00;;;14.07;;
84608;SDS011;74839;51.214;22.574;2023-12-20T03:43:12;24.87;;;14.17;;
84608;SDS011;74839;51.214;22.574;2023-12-20T03:45:38;23.50;;;13.43;;
84608;SDS011;74839;51.214;22.574;2023-12-20T03:48:04;24.97;;;13.93;;
84608;SDS011;74839;51.214;22.574;2023-12-20T03:50:30;24.23;;;14.43;;
84608;SDS011;74839;51.214;22.574;2023-12-20T03:52:56;29.73;;;15.13;;
84608;SDS011;74839;51.214;22.574;2023-12-20T03:55:22;22.33;;;13.67;;
84608;SDS011;74839;51.214;22.574;2023-12-20T03:57:48;24.53;;;14.93;;
84608;SDS011;74839;51.214;22.574;2023-12-20T04:00:14;25.57;;;15.17;;
84608;SDS011;74839;51.214;22.574;2023-12-20T04:02:41;25.47;;;14.63;;
84608;SDS011;74839;51.214;22.574;2023-12-20T04:05:07;23.57;;;14.50;;
84608;SDS011;74839;51.214;22.574;2023-12-20T04:07:33;27.90;;;15.27;;
84608;SDS011;74839;51.214;22.574;2023-12-20T04:09:59;30.60;;;14.77;;
84608;SDS011;74839;51.214;22.574;2023-12-20T04:12:26;25.17;;;15.17;;
84608;SDS011;74839;51.214;22.574;2023-12-20T04:14:52;25.67;;;16.10;;
84608;SDS011;74839;51.214;22.574;2023-12-20T04:17:19;24.90;;;15.00;;
84608;SDS011;74839;51.214;22.574;2023-12-20T04:19:47;27.07;;;15.80;;
84608;SDS011;74839;51.214;22.574;2023-12-20T04:22:13;23.63;;;15.10;;
84608;SDS011;74839;51.214;22.574;2023-12-20T04:24:39;27.23;;;16.80;;
84608;SDS011;74839;51.214;22.574;2023-12-20T04:27:07;25.73;;;15.40;;
84608;SDS011;74839;51.214;22.574;2023-12-20T04:29:33;25.23;;;15.10;;
84608;SDS011;74839;51.214;22.574;2023-12-20T04:31:59;26.53;;;15.33;;
84608;SDS011;74839;51.214;22.574;2023-12-20T04:34:25;27.00;;;15.13;;
84608;SDS011;74839;51.214;22.574;2023-12-20T04:36:51;24.53;;;14.30;;
84608;SDS011;74839;51.214;22.574;2023-12-20T04:39:17;27.73;;;16.67;;
84608;SDS011;74839;51.214;22.574;2023-12-20T04:41:43;28.43;;;15.60;;
84608;SDS011;74839;51.214;22.574;2023-12-20T04:44:09;28.43;;;17.00;;
84608;SDS011;74839;51.214;22.574;2023-12-20T04:46:35;24.73;;;15.53;;
84608;SDS011;74839;51.214;22.574;2023-12-20T04:49:01;26.13;;;15.63;;
84608;SDS011;74839;51.214;22.574;2023-12-20T04:51:27;26.40;;;14.97;;
84608;SDS011;74839;51.214;22.574;2023-12-20T04:53:53;24.13;;;14.77;;
84608;SDS011;74839;51.214;22.574;2023-12-20T04:56:19;28.53;;;16.37;;
84608;SDS011;74839;51.214;22.574;2023-12-20T04:58:45;29.17;;;15.57;;
84608;SDS011;74839;51.214;22.574;2023-12-20T05:01:12;28.37;;;15.97;;
84608;SDS011;74839;51.214;22.574;2023-12-20T05:03:38;25.87;;;15.30;;
84608;SDS011;74839;51.214;22.574;2023-12-20T05:06:04;28.47;;;16.07;;
84608;SDS011;74839;51.214;22.574;2023-12-20T05:08:30;25.60;;;14.57;;
84608;SDS011;74839;51.214;22.574;2023-12-20T05:10:56;28.83;;;16.60;;
84608;SDS011;74839;51.214;22.574;2023-12-20T05:13:22;29.10;;;16.27;;
84608;SDS011;74839;51.214;22.574;2023-12-20T05:15:48;28.83;;;16.37;;
84608;SDS011;74839;51.214;22.574;2023-12-20T05:18:14;28.33;;;16.57;;
84608;SDS011;74839;51.214;22.574;2023-12-20T05:20:40;31.20;;;16.47;;
84608;SDS011;74839;51.214;22.574;2023-12-20T05:23:06;30.30;;;16.43;;
84608;SDS011;74839;51.214;22.574;2023-12-20T05:25:33;26.83;;;15.97;;
84608;SDS011;74839;51.214;22.574;2023-12-20T05:27:59;25.27;;;15.17;;
84608;SDS011;74839;51.214;22.574;2023-12-20T05:30:25;28.27;;;16.63;;
84608;SDS011;74839;51.214;22.574;2023-12-20T05:32:51;27.67;;;15.87;;
84608;SDS011;74839;51.214;22.574;2023-12-20T05:35:17;24.97;;;15.97;;
84608;SDS011;74839;51.214;22.574;2023-12-20T05:37:44;25.90;;;15.77;;
84608;SDS011;74839;51.214;22.574;2023-12-20T05:40:10;30.07;;;17.50;;
84608;SDS011;74839;51.214;22.574;2023-12-20T05:42:37;29.73;;;17.90;;
84608;SDS011;74839;51.214;22.574;2023-12-20T05:45:03;26.03;;;16.80;;
84608;SDS011;74839;51.214;22.574;2023-12-20T05:47:29;28.10;;;16.27;;
84608;SDS011;74839;51.214;22.574;2023-12-20T05:49:55;26.40;;;16.13;;
84608;SDS011;74839;51.214;22.574;2023-12-20T05:52:21;29.10;;;16.80;;
84608;SDS011;74839;51.214;22.574;2023-12-20T05:54:47;28.47;;;15.07;;
84608;SDS011;74839;51.214;22.574;2023-12-20T05:57:13;31.07;;;16.87;;
84608;SDS011;74839;51.214;22.574;2023-12-20T05:59:39;28.03;;;16.27;;
84608;SDS011;74839;51.214;22.574;2023-12-20T06:02:05;28.17;;;15.47;;
84608;SDS011;74839;51.214;22.574;2023-12-20T06:04:31;26.27;;;16.57;;
84608;SDS011;74839;51.214;22.574;2023-12-20T06:06:58;28.43;;;16.20;;
84608;SDS011;74839;51.214;22.574;2023-12-20T06:09:24;26.43;;;16.50;;
84608;SDS011;74839;51.214;22.574;2023-12-20T06:11:50;30.47;;;17.03;;
84608;SDS011;74839;51.214;22.574;2023-12-20T06:14:16;29.87;;;17.37;;
84608;SDS011;74839;51.214;22.574;2023-12-20T06:16:42;28.13;;;17.87;;
84608;SDS011;74839;51.214;22.574;2023-12-20T06:19:10;31.87;;;17.67;;
84608;SDS011;74839;51.214;22.574;2023-12-20T06:21:36;29.90;;;17.03;;
84608;SDS011;74839;51.214;22.574;2023-12-20T06:24:02;30.50;;;17.93;;
84608;SDS011;74839;51.214;22.574;2023-12-20T06:26:28;30.27;;;16.27;;
84608;SDS011;74839;51.214;22.574;2023-12-20T06:28:54;30.40;;;18.33;;
84608;SDS011;74839;51.214;22.574;2023-12-20T06:31:20;32.30;;;17.23;;
84608;SDS011;74839;51.214;22.574;2023-12-20T06:33:46;33.53;;;18.27;;
84608;SDS011;74839;51.214;22.574;2023-12-20T06:36:14;33.30;;;19.07;;
84608;SDS011;74839;51.214;22.574;2023-12-20T06:38:40;32.20;;;18.13;;
84608;SDS011;74839;51.214;22.574;2023-12-20T06:41:07;36.13;;;19.40;;
84608;SDS011;74839;51.214;22.574;2023-12-20T06:43:33;32.43;;;18.23;;
84608;SDS011;74839;51.214;22.574;2023-12-20T06:46:02;30.90;;;18.43;;
84608;SDS011;74839;51.214;22.574;2023-12-20T06:48:28;32.93;;;19.57;;
84608;SDS011;74839;51.214;22.574;2023-12-20T06:50:54;33.50;;;19.33;;
84608;SDS011;74839;51.214;22.574;2023-12-20T06:53:20;35.07;;;18.87;;
84608;SDS011;74839;51.214;22.574;2023-12-20T06:55:46;31.33;;;19.63;;
84608;SDS011;74839;51.214;22.574;2023-12-20T06:58:12;31.13;;;18.77;;
84608;SDS011;74839;51.214;22.574;2023-12-20T07:00:38;33.20;;;19.50;;
84608;SDS011;74839;51.214;22.574;2023-12-20T07:03:04;33.30;;;19.90;;
84608;SDS011;74839;51.214;22.574;2023-12-20T07:05:30;33.87;;;19.47;;
84608;SDS011;74839;51.214;22.574;2023-12-20T07:07:56;31.30;;;19.23;;
84608;SDS011;74839;51.214;22.574;2023-12-20T07:10:22;38.43;;;20.83;;
84608;SDS011;74839;51.214;22.574;2023-12-20T07:12:48;31.50;;;19.93;;
84608;SDS011;74839;51.214;22.574;2023-12-20T07:15:16;36.20;;;19.90;;
84608;SDS011;74839;51.214;22.574;2023-12-20T07:17:42;38.10;;;21.10;;
84608;SDS011;74839;51.214;22.574;2023-12-20T07:20:08;29.77;;;20.23;;
84608;SDS011;74839;51.214;22.574;2023-12-20T07:22:36;36.87;;;19.80;;
84608;SDS011;74839;51.214;22.574;2023-12-20T07:25:02;33.00;;;19.73;;
84608;SDS011;74839;51.214;22.574;2023-12-20T07:27:28;33.93;;;19.73;;
84608;SDS011;74839;51.214;22.574;2023-12-20T07:29:55;33.67;;;19.60;;
84608;SDS011;74839;51.214;22.574;2023-12-20T07:32:20;35.17;;;19.63;;
84608;SDS011;74839;51.214;22.574;2023-12-20T07:34:46;32.10;;;19.17;;
84608;SDS011;74839;51.214;22.574;2023-12-20T07:37:13;33.97;;;17.07;;
84608;SDS011;74839;51.214;22.574;2023-12-20T07:39:42;37.63;;;20.00;;
84608;SDS011;74839;51.214;22.574;2023-12-20T07:42:08;36.07;;;20.23;;
84608;SDS011;74839;51.214;22.574;2023-12-20T07:44:34;37.57;;;21.47;;
84608;SDS011;74839;51.214;22.574;2023-12-20T07:47:03;32.20;;;18.57;;
84608;SDS011;74839;51.214;22.574;2023-12-20T07:49:33;32.00;;;17.83;;
84608;SDS011;74839;51.214;22.574;2023-12-20T07:51:59;32.10;;;18.27;;
84608;SDS011;74839;51.214;22.574;2023-12-20T07:54:25;32.83;;;18.77;;
84608;SDS011;74839;51.214;22.574;2023-12-20T07:56:51;31.17;;;17.87;;
84608;SDS011;74839;51.214;22.574;2023-12-20T07:59:17;31.50;;;19.00;;
84608;SDS011;74839;51.214;22.574;2023-12-20T08:01:43;30.27;;;18.23;;
84608;SDS011;74839;51.214;22.574;2023-12-20T08:04:09;31.13;;;19.00;;
84608;SDS011;74839;51.214;22.574;2023-12-20T08:06:35;35.27;;;19.30;;
84608;SDS011;74839;51.214;22.574;2023-12-20T08:09:01;36.53;;;19.70;;
84608;SDS011;74839;51.214;22.574;2023-12-20T08:11:28;38.40;;;21.83;;
84608;SDS011;74839;51.214;22.574;2023-12-20T08:13:54;35.00;;;21.00;;
84608;SDS011;74839;51.214;22.574;2023-12-20T08:16:20;32.13;;;19.20;;
84608;SDS011;74839;51.214;22.574;2023-12-20T08:18:47;34.00;;;18.50;;
84608;SDS011;74839;51.214;22.574;2023-12-20T08:21:13;36.90;;;19.13;;
84608;SDS011;74839;51.214;22.574;2023-12-20T08:23:39;32.07;;;18.10;;
84608;SDS011;74839;51.214;22.574;2023-12-20T08:26:05;32.90;;;18.10;;
84608;SDS011;74839;51.214;22.574;2023-12-20T08:28:31;35.23;;;18.30;;
84608;SDS011;74839;51.214;22.574;2023-12-20T08:30:57;33.30;;;18.03;;
84608;SDS011;74839;51.214;22.574;2023-12-20T08:33:23;32.33;;;18.77;;
84608;SDS011;74839;51.214;22.574;2023-12-20T08:35:49;33.30;;;19.57;;
84608;SDS011;74839;51.214;22.574;2023-12-20T08:38:15;36.17;;;19.37;;
84608;SDS011;74839;51.214;22.574;2023-12-20T08:40:42;32.53;;;19.43;;
84608;SDS011;74839;51.214;22.574;2023-12-20T08:43:08;31.37;;;19.63;;
84608;SDS011;74839;51.214;22.574;2023-12-20T08:45:34;29.80;;;17.63;;
84608;SDS011;74839;51.214;22.574;2023-12-20T08:48:01;30.17;;;17.87;;
84608;SDS011;74839;51.214;22.574;2023-12-20T08:50:27;31.07;;;18.43;;
84608;SDS011;74839;51.214;22.574;2023-12-20T08:52:53;31.30;;;17.83;;
84608;SDS011;74839;51.214;22.574;2023-12-20T08:55:19;28.87;;;17.67;;
84608;SDS011;74839;51.214;22.574;2023-12-20T08:57:45;32.67;;;18.33;;
84608;SDS011;74839;51.214;22.574;2023-12-20T09:00:12;28.37;;;17.17;;
84608;SDS011;74839;51.214;22.574;2023-12-20T09:02:38;29.20;;;17.77;;
84608;SDS011;74839;51.214;22.574;2023-12-20T09:05:04;29.30;;;17.47;;
84608;SDS011;74839;51.214;22.574;2023-12-20T09:07:30;27.33;;;15.90;;
84608;SDS011;74839;51.214;22.574;2023-12-20T09:09:57;31.50;;;18.27;;
84608;SDS011;74839;51.214;22.574;2023-12-20T09:12:23;29.83;;;18.03;;
84608;SDS011;74839;51.214;22.574;2023-12-20T09:14:50;32.70;;;18.77;;
84608;SDS011;74839;51.214;22.574;2023-12-20T09:17:17;31.03;;;17.70;;
84608;SDS011;74839;51.214;22.574;2023-12-20T09:19:43;32.60;;;17.87;;
84608;SDS011;74839;51.214;22.574;2023-12-20T09:22:09;32.07;;;19.40;;
84608;SDS011;74839;51.214;22.574;2023-12-20T09:24:35;31.83;;;18.50;;
84608;SDS011;74839;51.214;22.574;2023-12-20T09:27:01;31.80;;;18.73;;
84608;SDS011;74839;51.214;22.574;2023-12-20T09:29:28;28.87;;;19.53;;
84608;SDS011;74839;51.214;22.574;2023-12-20T09:31:54;31.27;;;18.53;;
84608;SDS011;74839;51.214;22.574;2023-12-20T09:34:20;32.43;;;18.50;;
84608;SDS011;74839;51.214;22.574;2023-12-20T09:36:47;33.60;;;18.60;;
84608;SDS011;74839;51.214;22.574;2023-12-20T09:39:13;32.30;;;17.73;;
84608;SDS011;74839;51.214;22.574;2023-12-20T09:41:42;32.03;;;17.57;;
84608;SDS011;74839;51.214;22.574;2023-12-20T09:44:11;28.30;;;18.13;;
84608;SDS011;74839;51.214;22.574;2023-12-20T09:46:38;27.67;;;17.73;;
84608;SDS011;74839;51.214;22.574;2023-12-20T09:49:07;32.13;;;17.17;;
84608;SDS011;74839;51.214;22.574;2023-12-20T09:51:33;32.30;;;19.50;;
84608;SDS011;74839;51.214;22.574;2023-12-20T09:54:00;32.67;;;18.57;;
84608;SDS011;74839;51.214;22.574;2023-12-20T09:56:29;29.53;;;16.73;;
84608;SDS011;74839;51.214;22.574;2023-12-20T09:58:55;27.40;;;16.50;;
84608;SDS011;74839;51.214;22.574;2023-12-20T10:01:21;30.97;;;18.07;;
84608;SDS011;74839;51.214;22.574;2023-12-20T10:03:47;34.47;;;18.87;;
84608;SDS011;74839;51.214;22.574;2023-12-20T10:06:13;31.30;;;17.13;;
84608;SDS011;74839;51.214;22.574;2023-12-20T10:08:39;29.33;;;18.67;;
84608;SDS011;74839;51.214;22.574;2023-12-20T10:11:05;34.30;;;17.63;;
84608;SDS011;74839;51.214;22.574;2023-12-20T10:13:31;32.67;;;19.50;;
84608;SDS011;74839;51.214;22.574;2023-12-20T10:15:57;29.17;;;18.13;;
84608;SDS011;74839;51.214;22.574;2023-12-20T10:18:24;27.53;;;17.20;;
84608;SDS011;74839;51.214;22.574;2023-12-20T10:20:50;31.83;;;16.63;;
84608;SDS011;74839;51.214;22.574;2023-12-20T10:23:16;32.07;;;17.30;;
84608;SDS011;74839;51.214;22.574;2023-12-20T10:25:43;28.73;;;17.47;;
84608;SDS011;74839;51.214;22.574;2023-12-20T10:28:10;27.20;;;15.40;;
84608;SDS011;74839;51.214;22.574;2023-12-20T10:30:36;24.83;;;15.73;;
84608;SDS011;74839;51.214;22.574;2023-12-20T10:33:02;24.67;;;15.13;;
84608;SDS011;74839;51.214;22.574;2023-12-20T10:35:28;23.87;;;14.40;;
84608;SDS011;74839;51.214;22.574;2023-12-20T10:37:55;24.23;;;14.47;;
84608;SDS011;74839;51.214;22.574;2023-12-20T10:40:22;21.97;;;13.63;;
84608;SDS011;74839;51.214;22.574;2023-12-20T10:42:48;22.67;;;14.50;;
84608;SDS011;74839;51.214;22.574;2023-12-20T10:45:16;22.77;;;14.00;;
84608;SDS011;74839;51.214;22.574;2023-12-20T10:47:43;25.30;;;15.17;;
84608;SDS011;74839;51.214;22.574;2023-12-20T10:50:12;22.50;;;13.97;;
84608;SDS011;74839;51.214;22.574;2023-12-20T10:52:38;22.73;;;14.00;;
84608;SDS011;74839;51.214;22.574;2023-12-20T10:55:04;21.00;;;13.10;;
84608;SDS011;74839;51.214;22.574;2023-12-20T10:57:30;22.03;;;13.60;;
84608;SDS011;74839;51.214;22.574;2023-12-20T10:59:57;24.63;;;14.30;;
84608;SDS011;74839;51.214;22.574;2023-12-20T11:02:29;26.80;;;14.77;;
84608;SDS011;74839;51.214;22.574;2023-12-20T11:04:56;25.77;;;14.10;;
84608;SDS011;74839;51.214;22.574;2023-12-20T11:12:41;20.60;;;11.70;;
84608;SDS011;74839;51.214;22.574;2023-12-20T11:15:07;20.13;;;12.60;;
84608;SDS011;74839;51.214;22.574;2023-12-20T11:17:33;19.80;;;12.13;;
84608;SDS011;74839;51.214;22.574;2023-12-20T11:22:30;21.43;;;13.33;;
84608;SDS011;74839;51.214;22.574;2023-12-20T11:25:29;21.07;;;12.60;;
84608;SDS011;74839;51.214;22.574;2023-12-20T11:28:09;20.90;;;12.67;;
84608;SDS011;74839;51.214;22.574;2023-12-20T11:30:42;18.83;;;12.33;;
84608;SDS011;74839;51.214;22.574;2023-12-20T11:33:08;19.90;;;12.47;;
84608;SDS011;74839;51.214;22.574;2023-12-20T11:35:34;17.00;;;11.27;;
84608;SDS011;74839;51.214;22.574;2023-12-20T11:38:01;18.03;;;11.77;;
84608;SDS011;74839;51.214;22.574;2023-12-20T11:40:27;23.77;;;13.00;;
84608;SDS011;74839;51.214;22.574;2023-12-20T11:42:53;21.17;;;13.20;;
84608;SDS011;74839;51.214;22.574;2023-12-20T11:45:21;20.57;;;12.20;;
84608;SDS011;74839;51.214;22.574;2023-12-20T11:47:48;22.63;;;13.40;;
84608;SDS011;74839;51.214;22.574;2023-12-20T11:50:18;22.47;;;13.60;;
84608;SDS011;74839;51.214;22.574;2023-12-20T11:52:44;19.90;;;13.30;;
84608;SDS011;74839;51.214;22.574;2023-12-20T11:55:10;24.70;;;14.57;;
84608;SDS011;74839;51.214;22.574;2023-12-20T11:57:37;27.20;;;15.13;;
84608;SDS011;74839;51.214;22.574;2023-12-20T12:00:04;25.63;;;14.80;;
84608;SDS011;74839;51.214;22.574;2023-12-20T12:02:31;22.20;;;14.13;;
84608;SDS011;74839;51.214;22.574;2023-12-20T12:04:57;22.83;;;14.73;;
84608;SDS011;74839;51.214;22.574;2023-12-20T12:07:25;20.40;;;13.93;;
84608;SDS011;74839;51.214;22.574;2023-12-20T12:09:51;23.30;;;12.60;;
84608;SDS011;74839;51.214;22.574;2023-12-20T12:12:17;19.50;;;13.03;;
84608;SDS011;74839;51.214;22.574;2023-12-20T12:14:44;13.83;;;9.10;;
84608;SDS011;74839;51.214;22.574;2023-12-20T12:17:11;10.73;;;5.47;;
84608;SDS011;74839;51.214;22.574;2023-12-20T12:19:37;5.20;;;3.50;;
84608;SDS011;74839;51.214;22.574;2023-12-20T12:22:04;5.23;;;3.53;;
84608;SDS011;74839;51.214;22.574;2023-12-20T12:24:40;5.03;;;3.50;;
84608;SDS011;74839;51.214;22.574;2023-12-20T12:27:11;3.33;;;2.60;;
84608;SDS011;74839;51.214;22.574;2023-12-20T12:29:37;3.60;;;2.60;;
84608;SDS011;74839;51.214;22.574;2023-12-20T12:32:04;2.60;;;2.20;;
84608;SDS011;74839;51.214;22.574;2023-12-20T12:34:32;3.10;;;2.13;;
84608;SDS011;74839;51.214;22.574;2023-12-20T12:36:59;2.00;;;1.70;;
84608;SDS011;74839;51.214;22.574;2023-12-20T12:39:25;2.27;;;2.00;;
84608;SDS011;74839;51.214;22.574;2023-12-20T12:41:52;1.73;;;1.60;;
84608;SDS011;74839;51.214;22.574;2023-12-20T12:44:19;1.87;;;1.70;;
84608;SDS011;74839;51.214;22.574;2023-12-20T12:46:47;2.10;;;1.60;;
84608;SDS011;74839;51.214;22.574;2023-12-20T12:49:16;1.93;;;1.70;;
84608;SDS011;74839;51.214;22.574;2023-12-20T12:51:43;3.23;;;1.93;;
84608;SDS011;74839;51.214;22.574;2023-12-20T12:54:09;2.37;;;1.87;;
84608;SDS011;74839;51.214;22.574;2023-12-20T12:56:38;1.63;;;1.53;;
84608;SDS011;74839;51.214;22.574;2023-12-20T12:59:04;2.27;;;1.70;;
84608;SDS011;74839;51.214;22.574;2023-12-20T13:01:30;2.47;;;1.93;;
84608;SDS011;74839;51.214;22.574;2023-12-20T13:03:56;2.80;;;1.90;;
84608;SDS011;74839;51.214;22.574;2023-12-20T13:06:23;2.17;;;1.87;;
84608;SDS011;74839;51.214;22.574;2023-12-20T13:08:49;2.53;;;2.17;;
84608;SDS011;74839;51.214;22.574;2023-12-20T13:11:15;2.00;;;1.73;;
84608;SDS011;74839;51.214;22.574;2023-12-20T13:13:41;2.47;;;1.80;;
84608;SDS011;74839;51.214;22.574;2023-12-20T13:16:07;1.57;;;1.47;;
84608;SDS011;74839;51.214;22.574;2023-12-20T13:18:33;2.67;;;1.80;;
84608;SDS011;74839;51.214;22.574;2023-12-20T13:20:59;3.13;;;1.97;;
84608;SDS011;74839;51.214;22.574;2023-12-20T13:23:25;3.87;;;2.67;;
84608;SDS011;74839;51.214;22.574;2023-12-20T13:25:51;4.53;;;3.50;;
84608;SDS011;74839;51.214;22.574;2023-12-20T13:28:18;4.97;;;3.63;;
84608;SDS011;74839;51.214;22.574;2023-12-20T13:30:44;6.43;;;4.03;;
84608;SDS011;74839;51.214;22.574;2023-12-20T13:33:10;3.73;;;2.90;;
84608;SDS011;74839;51.214;22.574;2023-12-20T13:35:37;4.07;;;2.93;;
84608;SDS011;74839;51.214;22.574;2023-12-20T13:38:04;3.73;;;2.60;;
84608;SDS011;74839;51.214;22.574;2023-12-20T13:40:30;3.40;;;2.50;;
84608;SDS011;74839;51.214;22.574;2023-12-20T13:42:56;4.47;;;2.83;;
84608;SDS011;74839;51.214;22.574;2023-12-20T13:45:22;2.47;;;2.20;;
84608;SDS011;74839;51.214;22.574;2023-12-20T13:47:50;3.23;;;2.50;;
84608;SDS011;74839;51.214;22.574;2023-12-20T13:50:16;3.97;;;3.27;;
84608;SDS011;74839;51.214;22.574;2023-12-20T13:52:42;5.43;;;3.50;;
84608;SDS011;74839;51.214;22.574;2023-12-20T13:55:08;5.83;;;4.33;;
84608;SDS011;74839;51.214;22.574;2023-12-20T13:57:35;5.87;;;3.67;;
84608;SDS011;74839;51.214;22.574;2023-12-20T14:00:03;5.73;;;3.00;;
84608;SDS011;74839;51.214;22.574;2023-12-20T14:02:29;3.30;;;2.50;;
84608;SDS011;74839;51.214;22.574;2023-12-20T14:04:55;2.90;;;2.60;;
84608;SDS011;74839;51.214;22.574;2023-12-20T14:07:21;5.80;;;3.00;;
84608;SDS011;74839;51.214;22.574;2023-12-20T14:09:47;3.77;;;2.40;;
84608;SDS011;74839;51.214;22.574;2023-12-20T14:12:14;4.33;;;3.00;;
84608;SDS011;74839;51.214;22.574;2023-12-20T14:14:40;4.03;;;2.77;;
84608;SDS011;74839;51.214;22.574;2023-12-20T14:17:06;4.73;;;3.43;;